createdAt,value
2018-11-26T00:00:21.706Z,77.30
2018-11-26T00:00:56.420Z,76.50
2018-11-26T00:01:30.161Z,76.50
2018-11-26T00:02:04.619Z,76.40
2018-11-26T00:02:38.192Z,76.50
2018-11-26T00:03:12.967Z,76.50
2018-11-26T00:03:46.565Z,76.40
2018-11-26T00:04:22.229Z,76.40
2018-11-26T00:04:57.293Z,76.40
2018-11-26T00:05:32.437Z,76.60
2018-11-26T00:06:06.602Z,76.60
2018-11-26T00:06:41.137Z,76.80
2018-11-26T00:07:15.510Z,76.70
2018-11-26T00:07:49.044Z,76.70
2018-11-26T00:08:23.667Z,76.60
2018-11-26T00:08:57.878Z,76.60
2018-11-26T00:09:31.418Z,76.50
2018-11-26T00:10:20.514Z,76.40
2018-11-26T00:12:00.764Z,76.40
2018-11-26T00:12:34.331Z,76.50
2018-11-26T00:13:08.496Z,76.60
2018-11-26T00:13:42.127Z,76.60
2018-11-26T00:14:15.947Z,76.60
2018-11-26T00:14:51.080Z,76.80
2018-11-26T00:15:25.006Z,76.90
2018-11-26T00:15:59.991Z,77.10
2018-11-26T00:16:33.616Z,77.40
2018-11-26T00:17:08.607Z,77.40
2018-11-26T00:17:44.211Z,77.30
2018-11-26T00:18:19.468Z,77.30
2018-11-26T00:18:53.948Z,77.20
2018-11-26T00:19:27.546Z,77.20
2018-11-26T00:20:02.113Z,77.20
2018-11-26T00:20:35.650Z,77.20
2018-11-26T00:21:09.135Z,77.20
2018-11-26T00:21:43.258Z,77.40
2018-11-26T00:22:16.821Z,77.40
2018-11-26T00:22:50.967Z,77.50
2018-11-26T00:23:25.561Z,77.60
2018-11-26T00:24:00.462Z,77.60
2018-11-26T00:24:34.771Z,77.60
2018-11-26T00:25:10.223Z,77.40
2018-11-26T00:25:43.725Z,77.40
2018-11-26T00:26:19.046Z,77.40
2018-11-26T00:26:53.317Z,77.40
2018-11-26T00:27:26.922Z,77.40
2018-11-26T00:28:01.165Z,77.40
2018-11-26T00:28:36.079Z,77.30
2018-11-26T00:29:10.742Z,77.20
2018-11-26T00:29:44.668Z,77.00
2018-11-26T00:30:19.161Z,77.00
2018-11-26T00:30:53.248Z,77.00
2018-11-26T00:31:26.811Z,77.00
2018-11-26T00:32:00.945Z,77.00
2018-11-26T00:32:34.637Z,76.80
2018-11-26T00:33:08.211Z,76.70
2018-11-26T00:33:41.851Z,76.70
2018-11-26T00:34:16.019Z,76.70
2018-11-26T00:34:49.648Z,76.70
2018-11-26T00:35:23.129Z,76.80
2018-11-26T00:35:58.153Z,76.80
2018-11-26T00:36:34.051Z,76.80
2018-11-26T00:37:07.746Z,76.70
2018-11-26T00:37:41.723Z,76.50
2018-11-26T00:38:16.072Z,76.50
2018-11-26T00:38:50.445Z,76.60
2018-11-26T00:39:24.241Z,76.50
2018-11-26T00:39:57.793Z,76.30
2018-11-26T00:40:33.106Z,76.20
2018-11-26T00:41:07.331Z,76.20
2018-11-26T00:41:41.780Z,76.30
2018-11-26T00:42:17.498Z,76.40
2018-11-26T00:42:52.291Z,76.50
2018-11-26T00:43:25.913Z,76.40
2018-11-26T00:43:59.399Z,76.30
2018-11-26T00:44:33.467Z,76.20
2018-11-26T00:45:10.708Z,76.30
2018-11-26T00:45:45.447Z,76.20
2018-11-26T00:46:20.774Z,76.30
2018-11-26T00:46:53.678Z,76.20
2018-11-26T00:47:28.132Z,76.30
2018-11-26T00:48:02.487Z,76.40
2018-11-26T00:48:37.191Z,76.40
2018-11-26T00:49:13.545Z,76.20
2018-11-26T00:49:49.349Z,76.20
2018-11-26T00:50:22.968Z,76.10
2018-11-26T00:50:56.473Z,76.20
2018-11-26T00:51:31.121Z,76.20
2018-11-26T00:52:05.731Z,76.40
2018-11-26T00:52:41.791Z,76.10
2018-11-26T00:53:17.404Z,76.10
2018-11-26T00:53:51.049Z,75.90
2018-11-26T00:54:26.772Z,75.90
2018-11-26T00:55:00.303Z,75.90
2018-11-26T00:55:34.024Z,76.00
2018-11-26T00:56:08.332Z,76.10
2018-11-26T00:56:42.915Z,76.00
2018-11-26T00:57:17.098Z,76.00
2018-11-26T00:57:50.769Z,76.10
2018-11-26T00:58:24.321Z,76.10
2018-11-26T00:58:59.434Z,76.00
2018-11-26T00:59:34.215Z,76.00
2018-11-26T01:00:12.291Z,75.80
2018-11-26T01:00:46.550Z,75.90
2018-11-26T01:01:20.128Z,75.90
2018-11-26T01:01:53.850Z,76.00
2018-11-26T01:02:28.680Z,76.00
2018-11-26T01:03:02.255Z,75.90
2018-11-26T01:03:37.070Z,75.90
2018-11-26T01:04:11.300Z,76.00
2018-11-26T01:04:46.066Z,76.10
2018-11-26T01:05:40.184Z,75.90
2018-11-26T01:06:14.846Z,75.90
2018-11-26T01:06:49.607Z,75.90
2018-11-26T01:07:25.280Z,75.90
2018-11-26T01:07:59.035Z,75.90
2018-11-26T01:08:34.115Z,76.10
2018-11-26T01:09:09.384Z,76.30
2018-11-26T01:09:43.170Z,76.30
2018-11-26T01:10:17.889Z,76.20
2018-11-26T01:10:52.694Z,76.10
2018-11-26T01:11:26.231Z,76.10
2018-11-26T01:11:59.862Z,76.10
2018-11-26T01:12:33.452Z,76.10
2018-11-26T01:13:07.515Z,76.10
2018-11-26T01:13:41.540Z,76.20
2018-11-26T01:14:15.689Z,76.30
2018-11-26T01:14:49.305Z,76.20
2018-11-26T01:15:22.811Z,76.20
2018-11-26T01:15:57.152Z,76.20
2018-11-26T01:16:31.944Z,76.20
2018-11-26T01:17:06.878Z,76.80
2018-11-26T01:17:41.267Z,76.20
2018-11-26T01:18:15.784Z,76.20
2018-11-26T01:18:49.352Z,76.20
2018-11-26T01:19:22.876Z,76.20
2018-11-26T01:19:56.448Z,76.20
2018-11-26T01:20:30.614Z,76.20
2018-11-26T01:21:05.002Z,76.30
2018-11-26T01:21:38.548Z,76.30
2018-11-26T01:22:12.302Z,76.20
2018-11-26T01:22:46.080Z,76.80
2018-11-26T01:23:19.782Z,76.10
2018-11-26T01:23:53.350Z,76.10
2018-11-26T01:24:26.897Z,76.10
2018-11-26T01:25:00.413Z,76.20
2018-11-26T01:25:34.177Z,76.10
2018-11-26T01:26:08.784Z,76.00
2018-11-26T01:26:42.417Z,75.90
2018-11-26T01:27:16.062Z,76.00
2018-11-26T01:27:50.463Z,75.90
2018-11-26T01:28:24.517Z,75.90
2018-11-26T01:28:58.127Z,75.90
2018-11-26T01:29:31.699Z,75.80
2018-11-26T01:30:06.917Z,75.90
2018-11-26T01:30:40.928Z,75.80
2018-11-26T01:31:14.502Z,75.70
2018-11-26T01:31:48.135Z,75.80
2018-11-26T01:32:21.710Z,75.80
2018-11-26T01:32:56.280Z,75.90
2018-11-26T01:33:31.274Z,76.60
2018-11-26T01:34:05.361Z,75.90
2018-11-26T01:34:38.904Z,75.90
2018-11-26T01:35:12.658Z,75.80
2018-11-26T01:35:46.196Z,75.90
2018-11-26T01:36:19.711Z,75.90
2018-11-26T01:36:53.813Z,75.90
2018-11-26T01:37:30.830Z,76.00
2018-11-26T01:38:04.405Z,75.80
2018-11-26T01:38:37.955Z,75.80
2018-11-26T01:39:11.497Z,75.80
2018-11-26T01:39:45.570Z,75.80
2018-11-26T01:40:29.753Z,75.70
2018-11-26T01:41:03.271Z,75.70
2018-11-26T01:41:37.227Z,75.80
2018-11-26T01:42:10.739Z,75.80
2018-11-26T01:42:44.234Z,75.80
2018-11-26T01:43:17.737Z,75.70
2018-11-26T01:43:52.401Z,75.80
2018-11-26T01:44:25.960Z,75.90
2018-11-26T01:44:59.548Z,75.70
2018-11-26T01:45:33.825Z,75.70
2018-11-26T01:46:08.770Z,75.60
2018-11-26T01:46:42.280Z,75.70
2018-11-26T01:47:15.874Z,75.60
2018-11-26T01:47:49.425Z,75.50
2018-11-26T01:48:23.711Z,75.70
2018-11-26T01:48:57.249Z,75.60
2018-11-26T01:49:31.276Z,76.20
2018-11-26T01:50:05.166Z,75.70
2018-11-26T01:50:39.198Z,75.50
2018-11-26T01:51:13.869Z,75.50
2018-11-26T01:51:47.426Z,75.50
2018-11-26T01:52:22.723Z,75.60
2018-11-26T01:52:57.232Z,75.70
2018-11-26T01:53:30.837Z,75.90
2018-11-26T01:54:05.085Z,75.80
2018-11-26T01:54:40.205Z,75.80
2018-11-26T01:55:13.801Z,75.90
2018-11-26T01:55:47.831Z,75.90
2018-11-26T01:56:21.416Z,75.90
2018-11-26T01:56:56.192Z,75.80
2018-11-26T01:57:30.660Z,75.90
2018-11-26T01:58:04.373Z,75.90
2018-11-26T01:58:38.693Z,75.90
2018-11-26T01:59:13.737Z,76.00
2018-11-26T01:59:48.495Z,75.90
2018-11-26T02:00:24.293Z,76.10
2018-11-26T02:00:58.491Z,76.10
2018-11-26T02:01:32.070Z,76.10
2018-11-26T02:02:07.035Z,76.10
2018-11-26T02:02:42.450Z,75.90
2018-11-26T02:03:16.331Z,75.90
2018-11-26T02:03:50.214Z,75.80
2018-11-26T02:04:24.738Z,75.80
2018-11-26T02:04:59.627Z,75.70
2018-11-26T02:05:33.566Z,75.80
2018-11-26T02:06:08.346Z,75.70
2018-11-26T02:06:42.453Z,75.70
2018-11-26T02:07:16.091Z,75.80
2018-11-26T02:07:51.544Z,75.70
2018-11-26T02:08:26.384Z,75.80
2018-11-26T02:08:59.926Z,75.80
2018-11-26T02:09:35.173Z,75.90
2018-11-26T02:10:13.545Z,75.90
2018-11-26T02:10:47.730Z,76.00
2018-11-26T02:11:21.961Z,76.10
2018-11-26T02:11:56.123Z,76.20
2018-11-26T02:12:29.708Z,76.30
2018-11-26T02:13:04.673Z,76.20
2018-11-26T02:13:38.890Z,76.10
2018-11-26T02:14:13.471Z,76.20
2018-11-26T02:14:47.712Z,76.30
2018-11-26T02:15:33.899Z,76.30
2018-11-26T02:16:07.511Z,76.40
2018-11-26T02:16:41.898Z,76.40
2018-11-26T02:17:16.073Z,76.40
2018-11-26T02:17:50.737Z,76.40
2018-11-26T02:18:28.838Z,76.40
2018-11-26T02:19:02.611Z,76.40
2018-11-26T02:19:36.776Z,76.30
2018-11-26T02:20:11.200Z,76.30
2018-11-26T02:20:46.390Z,76.20
2018-11-26T02:21:20.338Z,76.10
2018-11-26T02:21:55.080Z,76.10
2018-11-26T02:22:30.261Z,76.00
2018-11-26T02:23:05.240Z,76.10
2018-11-26T02:23:39.443Z,76.00
2018-11-26T02:24:12.969Z,75.90
2018-11-26T02:24:47.828Z,75.90
2018-11-26T02:25:21.412Z,76.00
2018-11-26T02:25:57.366Z,76.00
2018-11-26T02:26:31.381Z,76.10
2018-11-26T02:27:05.942Z,75.90
2018-11-26T02:27:40.073Z,75.90
2018-11-26T02:28:13.637Z,75.80
2018-11-26T02:28:47.577Z,75.70
2018-11-26T02:29:21.500Z,75.70
2018-11-26T02:29:55.170Z,75.60
2018-11-26T02:30:29.099Z,75.50
2018-11-26T02:31:02.763Z,75.50
2018-11-26T02:31:37.976Z,75.50
2018-11-26T02:32:11.570Z,75.50
2018-11-26T02:32:45.169Z,75.50
2018-11-26T02:33:19.100Z,75.40
2018-11-26T02:33:52.778Z,76.10
2018-11-26T02:34:26.888Z,75.40
2018-11-26T02:35:01.246Z,75.30
2018-11-26T02:35:37.137Z,75.50
2018-11-26T02:36:11.068Z,75.60
2018-11-26T02:36:45.175Z,75.60
2018-11-26T02:37:19.080Z,75.60
2018-11-26T02:37:53.475Z,75.70
2018-11-26T02:38:27.164Z,75.60
2018-11-26T02:39:01.444Z,75.60
2018-11-26T02:39:35.828Z,75.50
2018-11-26T02:40:13.142Z,75.50
2018-11-26T02:40:48.174Z,75.40
2018-11-26T02:41:21.668Z,75.40
2018-11-26T02:41:55.349Z,75.40
2018-11-26T02:42:28.879Z,75.60
2018-11-26T02:43:02.567Z,76.30
2018-11-26T02:43:36.198Z,75.70
2018-11-26T02:44:09.816Z,75.70
2018-11-26T02:44:44.411Z,75.60
2018-11-26T02:45:18.005Z,75.50
2018-11-26T02:45:51.878Z,75.30
2018-11-26T02:46:25.421Z,75.10
2018-11-26T02:46:58.997Z,75.30
2018-11-26T02:47:33.423Z,75.30
2018-11-26T02:48:06.982Z,75.30
2018-11-26T02:48:42.016Z,75.30
2018-11-26T02:49:19.301Z,75.40
2018-11-26T02:49:52.911Z,75.30
2018-11-26T02:50:27.283Z,75.20
2018-11-26T02:51:02.383Z,75.30
2018-11-26T02:51:37.378Z,75.30
2018-11-26T02:52:12.140Z,75.30
2018-11-26T02:52:45.695Z,75.20
2018-11-26T02:53:19.165Z,75.30
2018-11-26T02:53:52.699Z,75.40
2018-11-26T02:54:26.263Z,75.50
2018-11-26T02:54:59.758Z,75.50
2018-11-26T02:55:34.423Z,76.20
2018-11-26T02:56:08.123Z,75.50
2018-11-26T02:56:42.067Z,75.50
2018-11-26T02:57:15.593Z,75.70
2018-11-26T02:57:49.170Z,75.70
2018-11-26T02:58:22.689Z,75.70
2018-11-26T02:58:56.940Z,75.50
2018-11-26T02:59:30.972Z,75.60
2018-11-26T03:00:06.592Z,75.60
2018-11-26T03:00:40.321Z,75.60
2018-11-26T03:01:14.569Z,75.70
2018-11-26T03:01:48.300Z,75.70
2018-11-26T03:02:21.784Z,75.70
2018-11-26T03:02:55.650Z,75.60
2018-11-26T03:03:30.556Z,75.60
2018-11-26T03:04:05.691Z,75.50
2018-11-26T03:04:40.636Z,75.60
2018-11-26T03:05:24.648Z,75.70
2018-11-26T03:05:58.455Z,75.60
2018-11-26T03:06:32.349Z,75.60
2018-11-26T03:07:06.964Z,75.70
2018-11-26T03:07:42.942Z,75.70
2018-11-26T03:08:17.291Z,75.30
2018-11-26T03:08:51.740Z,75.70
2018-11-26T03:09:26.197Z,75.50
2018-11-26T03:09:59.755Z,75.70
2018-11-26T03:10:33.898Z,75.70
2018-11-26T03:11:07.472Z,75.90
2018-11-26T03:11:41.652Z,76.00
2018-11-26T03:12:16.172Z,76.20
2018-11-26T03:12:50.397Z,76.10
2018-11-26T03:13:24.047Z,76.10
2018-11-26T03:13:57.709Z,76.00
2018-11-26T03:14:31.321Z,75.90
2018-11-26T03:15:07.117Z,75.80
2018-11-26T03:15:41.864Z,75.90
2018-11-26T03:16:15.595Z,75.80
2018-11-26T03:16:49.384Z,75.70
2018-11-26T03:17:23.072Z,75.60
2018-11-26T03:17:57.105Z,75.70
2018-11-26T03:18:30.659Z,75.50
2018-11-26T03:19:05.066Z,75.50
2018-11-26T03:19:38.711Z,75.60
2018-11-26T03:20:12.847Z,75.40
2018-11-26T03:20:46.953Z,75.40
2018-11-26T03:21:20.640Z,75.30
2018-11-26T03:21:55.044Z,75.40
2018-11-26T03:22:29.820Z,75.30
2018-11-26T03:23:03.909Z,75.30
2018-11-26T03:23:38.171Z,75.40
2018-11-26T03:24:11.973Z,75.20
2018-11-26T03:24:45.652Z,75.20
2018-11-26T03:25:20.289Z,75.20
2018-11-26T03:25:54.503Z,75.30
2018-11-26T03:26:28.966Z,75.30
2018-11-26T03:27:03.299Z,75.30
2018-11-26T03:27:37.818Z,75.20
2018-11-26T03:28:12.456Z,75.10
2018-11-26T03:28:45.991Z,75.00
2018-11-26T03:29:20.296Z,75.80
2018-11-26T03:29:54.766Z,75.10
2018-11-26T03:30:28.643Z,75.10
2018-11-26T03:31:02.916Z,75.00
2018-11-26T03:31:37.146Z,75.10
2018-11-26T03:32:11.187Z,75.20
2018-11-26T03:32:46.055Z,75.20
2018-11-26T03:33:20.231Z,75.30
2018-11-26T03:33:54.356Z,75.30
2018-11-26T03:34:27.873Z,75.10
2018-11-26T03:35:02.673Z,74.90
2018-11-26T03:35:37.465Z,74.90
2018-11-26T03:36:11.991Z,74.90
2018-11-26T03:36:46.327Z,74.90
2018-11-26T03:37:20.199Z,75.00
2018-11-26T03:37:55.705Z,75.00
2018-11-26T03:38:50.313Z,75.00
2018-11-26T03:39:24.590Z,74.90
2018-11-26T03:39:59.095Z,74.80
2018-11-26T03:40:34.116Z,74.90
2018-11-26T03:41:08.507Z,74.70
2018-11-26T03:41:43.689Z,74.70
2018-11-26T03:42:17.217Z,74.60
2018-11-26T03:42:50.766Z,74.50
2018-11-26T03:43:25.100Z,74.50
2018-11-26T03:43:59.565Z,74.40
2018-11-26T03:44:35.140Z,74.20
2018-11-26T03:45:11.354Z,74.10
2018-11-26T03:45:46.071Z,74.10
2018-11-26T03:46:19.678Z,74.10
2018-11-26T03:46:53.342Z,74.10
2018-11-26T03:47:26.942Z,73.90
2018-11-26T03:48:00.552Z,74.00
2018-11-26T03:48:35.389Z,73.90
2018-11-26T03:49:10.155Z,74.00
2018-11-26T03:49:44.057Z,74.00
2018-11-26T03:50:18.196Z,74.00
2018-11-26T03:50:51.705Z,73.90
2018-11-26T03:51:25.396Z,74.00
2018-11-26T03:51:59.015Z,74.20
2018-11-26T03:52:32.620Z,74.10
2018-11-26T03:53:07.736Z,74.10
2018-11-26T03:53:41.686Z,74.10
2018-11-26T03:54:15.239Z,74.10
2018-11-26T03:54:49.929Z,73.90
2018-11-26T03:55:24.335Z,73.90
2018-11-26T03:55:57.935Z,73.80
2018-11-26T03:56:32.216Z,73.70
2018-11-26T03:57:06.256Z,73.80
2018-11-26T03:57:39.852Z,73.80
2018-11-26T03:58:13.801Z,73.70
2018-11-26T03:58:49.130Z,73.70
2018-11-26T03:59:23.677Z,73.80
2018-11-26T03:59:57.246Z,73.70
2018-11-26T04:00:30.796Z,73.70
2018-11-26T04:01:05.270Z,73.80
2018-11-26T04:01:38.847Z,73.70
2018-11-26T04:02:14.399Z,73.60
2018-11-26T04:02:48.565Z,73.70
2018-11-26T04:03:23.030Z,73.70
2018-11-26T04:03:56.659Z,74.30
2018-11-26T04:04:30.216Z,73.60
2018-11-26T04:05:04.049Z,73.70
2018-11-26T04:05:38.721Z,73.70
2018-11-26T04:06:12.267Z,73.60
2018-11-26T04:06:47.535Z,73.50
2018-11-26T04:07:21.853Z,73.60
2018-11-26T04:07:55.373Z,73.70
2018-11-26T04:08:29.521Z,73.60
2018-11-26T04:09:03.256Z,73.70
2018-11-26T04:09:37.416Z,73.90
2018-11-26T04:10:13.191Z,74.00
2018-11-26T04:10:46.700Z,73.90
2018-11-26T04:11:20.832Z,73.90
2018-11-26T04:11:55.353Z,73.80
2018-11-26T04:12:28.889Z,73.90
2018-11-26T04:13:03.567Z,74.10
2018-11-26T04:13:37.258Z,74.20
2018-11-26T04:14:11.735Z,74.20
2018-11-26T04:14:46.153Z,74.10
2018-11-26T04:15:19.732Z,74.10
2018-11-26T04:15:53.993Z,74.20
2018-11-26T04:16:28.553Z,74.70
2018-11-26T04:17:05.771Z,74.20
2018-11-26T04:17:39.636Z,74.10
2018-11-26T04:18:13.105Z,74.10
2018-11-26T04:18:47.614Z,74.10
2018-11-26T04:19:21.447Z,73.90
2018-11-26T04:19:55.121Z,74.00
2018-11-26T04:20:28.622Z,74.10
2018-11-26T04:21:02.809Z,74.10
2018-11-26T04:21:36.398Z,74.00
2018-11-26T04:22:10.169Z,74.10
2018-11-26T04:22:44.419Z,74.00
2018-11-26T04:23:17.942Z,73.90
2018-11-26T04:23:52.502Z,74.00
2018-11-26T04:24:26.454Z,74.10
2018-11-26T04:25:00.011Z,74.20
2018-11-26T04:25:34.957Z,74.50
2018-11-26T04:26:08.581Z,74.40
2018-11-26T04:26:42.369Z,74.30
2018-11-26T04:27:16.026Z,74.30
2018-11-26T04:27:52.633Z,74.10
2018-11-26T04:28:27.061Z,74.40
2018-11-26T04:29:00.857Z,74.20
2018-11-26T04:29:35.648Z,74.10
2018-11-26T04:30:11.711Z,74.10
2018-11-26T04:30:45.265Z,74.10
2018-11-26T04:31:18.957Z,74.10
2018-11-26T04:31:54.459Z,74.00
2018-11-26T04:32:28.855Z,74.00
2018-11-26T04:33:03.169Z,74.00
2018-11-26T04:33:37.026Z,74.10
2018-11-26T04:34:11.809Z,73.90
2018-11-26T04:34:46.231Z,73.90
2018-11-26T04:35:20.341Z,74.10
2018-11-26T04:35:54.227Z,74.90
2018-11-26T04:36:28.772Z,74.00
2018-11-26T04:37:03.708Z,73.90
2018-11-26T04:37:38.186Z,74.00
2018-11-26T04:38:11.727Z,74.00
2018-11-26T04:38:45.798Z,73.90
2018-11-26T04:39:20.361Z,73.90
2018-11-26T04:39:55.360Z,74.10
2018-11-26T04:40:30.090Z,74.30
2018-11-26T04:41:03.695Z,74.30
2018-11-26T04:41:38.051Z,74.30
2018-11-26T04:42:11.615Z,74.20
2018-11-26T04:42:45.728Z,74.20
2018-11-26T04:43:19.280Z,74.30
2018-11-26T04:43:53.616Z,74.10
2018-11-26T04:44:28.532Z,74.10
2018-11-26T04:45:02.140Z,74.00
2018-11-26T04:45:37.071Z,73.90
2018-11-26T04:46:10.633Z,73.90
2018-11-26T04:46:44.832Z,73.80
2018-11-26T04:47:18.453Z,73.80
2018-11-26T04:47:52.143Z,73.50
2018-11-26T04:48:25.651Z,73.70
2018-11-26T04:48:59.357Z,73.80
2018-11-26T04:49:33.402Z,73.60
2018-11-26T04:50:12.898Z,73.70
2018-11-26T04:50:47.938Z,73.90
2018-11-26T04:51:21.471Z,74.00
2018-11-26T04:51:55.062Z,73.90
2018-11-26T04:52:29.668Z,74.00
2018-11-26T04:53:03.717Z,74.10
2018-11-26T04:53:37.887Z,74.10
2018-11-26T04:54:11.971Z,74.00
2018-11-26T04:54:47.045Z,73.90
2018-11-26T04:55:20.581Z,73.90
2018-11-26T04:55:55.208Z,73.90
2018-11-26T04:56:29.970Z,73.90
2018-11-26T04:57:03.462Z,74.10
2018-11-26T04:57:42.131Z,74.10
2018-11-26T04:58:11.200Z,74.20
2018-11-26T04:58:44.778Z,74.30
2018-11-26T04:59:18.686Z,74.20
2018-11-26T04:59:52.940Z,74.10
2018-11-26T05:00:26.523Z,74.10
2018-11-26T05:01:00.114Z,74.10
2018-11-26T05:01:35.699Z,74.00
2018-11-26T05:02:09.265Z,74.10
2018-11-26T05:02:43.497Z,74.20
2018-11-26T05:03:16.992Z,74.30
2018-11-26T05:03:50.589Z,74.30
2018-11-26T05:04:24.111Z,74.20
2018-11-26T05:04:57.900Z,75.00
2018-11-26T05:05:32.468Z,74.20
2018-11-26T05:06:06.493Z,74.30
2018-11-26T05:06:40.120Z,74.50
2018-11-26T05:07:15.073Z,74.70
2018-11-26T05:07:48.660Z,74.70
2018-11-26T05:08:22.765Z,74.70
2018-11-26T05:08:57.366Z,74.70
2018-11-26T05:09:31.543Z,74.80
2018-11-26T05:10:08.258Z,75.00
2018-11-26T05:10:41.887Z,75.00
2018-11-26T05:11:15.408Z,75.10
2018-11-26T05:11:50.751Z,75.00
2018-11-26T05:12:24.911Z,74.90
2018-11-26T05:12:58.630Z,74.90
2018-11-26T05:13:32.691Z,74.90
2018-11-26T05:14:06.421Z,74.80
2018-11-26T05:14:41.235Z,74.90
2018-11-26T05:15:16.013Z,74.80
2018-11-26T05:15:49.524Z,74.70
2018-11-26T05:16:23.068Z,74.80
2018-11-26T05:16:58.042Z,74.90
2018-11-26T05:17:34.106Z,75.00
2018-11-26T05:18:09.805Z,75.00
2018-11-26T05:18:43.309Z,75.00
2018-11-26T05:19:17.408Z,74.90
2018-11-26T05:19:51.382Z,74.80
2018-11-26T05:20:26.844Z,74.90
2018-11-26T05:21:02.098Z,75.00
2018-11-26T05:21:35.601Z,75.20
2018-11-26T05:22:10.347Z,75.20
2018-11-26T05:22:44.682Z,75.10
2018-11-26T05:23:19.147Z,75.80
2018-11-26T05:23:52.643Z,75.10
2018-11-26T05:24:26.257Z,75.30
2018-11-26T05:24:59.936Z,75.10
2018-11-26T05:25:34.965Z,75.10
2018-11-26T05:26:10.206Z,75.10
2018-11-26T05:26:44.430Z,75.10
2018-11-26T05:27:18.388Z,75.00
2018-11-26T05:27:53.271Z,75.00
2018-11-26T05:28:26.873Z,75.10
2018-11-26T05:29:02.041Z,75.30
2018-11-26T05:29:35.541Z,75.10
2018-11-26T05:30:11.613Z,75.30
2018-11-26T05:30:45.306Z,75.50
2018-11-26T05:31:19.199Z,75.60
2018-11-26T05:31:56.209Z,75.70
2018-11-26T05:32:32.234Z,75.60
2018-11-26T05:33:07.757Z,76.20
2018-11-26T05:33:42.188Z,75.70
2018-11-26T05:34:17.060Z,75.50
2018-11-26T05:34:50.637Z,75.50
2018-11-26T05:35:24.201Z,75.50
2018-11-26T05:35:58.688Z,75.50
2018-11-26T05:36:33.387Z,75.70
2018-11-26T05:37:07.317Z,75.70
2018-11-26T05:37:42.113Z,75.80
2018-11-26T05:38:15.694Z,75.90
2018-11-26T05:38:50.450Z,75.90
2018-11-26T05:39:24.004Z,75.90
2018-11-26T05:39:58.742Z,75.80
2018-11-26T05:40:33.013Z,75.70
2018-11-26T05:41:08.828Z,75.80
2018-11-26T05:41:43.278Z,75.80
2018-11-26T05:42:16.947Z,75.90
2018-11-26T05:42:50.692Z,75.80
2018-11-26T05:43:24.964Z,75.80
2018-11-26T05:43:59.990Z,75.80
2018-11-26T05:44:34.481Z,75.70
2018-11-26T05:45:16.042Z,75.50
2018-11-26T05:45:50.606Z,75.50
2018-11-26T05:46:24.098Z,75.60
2018-11-26T05:46:58.472Z,75.50
2018-11-26T05:47:32.211Z,75.50
2018-11-26T05:48:05.857Z,75.70
2018-11-26T05:48:39.907Z,75.70
2018-11-26T05:49:13.441Z,75.70
2018-11-26T05:49:48.256Z,75.70
2018-11-26T05:50:23.748Z,76.40
2018-11-26T05:50:58.042Z,75.70
2018-11-26T05:51:32.461Z,75.80
2018-11-26T05:52:07.352Z,75.90
2018-11-26T05:52:42.422Z,75.90
2018-11-26T05:53:18.181Z,75.90
2018-11-26T05:53:52.650Z,75.80
2018-11-26T05:54:26.246Z,75.80
2018-11-26T05:55:00.868Z,75.80
2018-11-26T05:55:35.547Z,75.90
2018-11-26T05:56:10.108Z,76.00
2018-11-26T05:56:44.624Z,75.80
2018-11-26T05:57:19.078Z,75.70
2018-11-26T05:57:54.799Z,75.60
2018-11-26T05:58:29.475Z,75.50
2018-11-26T05:59:03.718Z,75.60
2018-11-26T05:59:39.150Z,75.60
2018-11-26T06:00:17.984Z,75.60
2018-11-26T06:00:52.272Z,75.70
2018-11-26T06:01:25.764Z,75.80
2018-11-26T06:02:00.596Z,75.60
2018-11-26T06:02:35.262Z,75.70
2018-11-26T06:03:09.699Z,75.70
2018-11-26T06:03:43.860Z,75.70
2018-11-26T06:04:17.530Z,75.60
2018-11-26T06:04:53.157Z,75.60
2018-11-26T06:05:26.999Z,75.60
2018-11-26T06:06:00.578Z,75.50
2018-11-26T06:06:34.861Z,75.50
2018-11-26T06:07:08.755Z,75.60
2018-11-26T06:07:43.257Z,76.50
2018-11-26T06:08:17.867Z,75.80
2018-11-26T06:08:51.854Z,75.80
2018-11-26T06:09:25.428Z,75.70
2018-11-26T06:09:59.015Z,75.70
2018-11-26T06:10:32.983Z,75.70
2018-11-26T06:11:08.887Z,75.70
2018-11-26T06:11:43.775Z,75.70
2018-11-26T06:12:17.587Z,75.50
2018-11-26T06:12:51.263Z,75.50
2018-11-26T06:13:25.362Z,75.40
2018-11-26T06:13:58.995Z,75.20
2018-11-26T06:14:32.633Z,75.30
2018-11-26T06:15:10.340Z,75.50
2018-11-26T06:15:43.980Z,75.30
2018-11-26T06:16:18.905Z,75.20
2018-11-26T06:16:53.600Z,75.30
2018-11-26T06:17:27.509Z,75.30
2018-11-26T06:18:01.337Z,75.20
2018-11-26T06:18:35.509Z,75.10
2018-11-26T06:19:09.196Z,75.20
2018-11-26T06:19:42.730Z,75.20
2018-11-26T06:20:17.796Z,75.10
2018-11-26T06:20:51.346Z,75.00
2018-11-26T06:21:24.911Z,75.00
2018-11-26T06:21:58.499Z,75.00
2018-11-26T06:22:32.938Z,75.00
2018-11-26T06:23:08.373Z,75.10
2018-11-26T06:23:43.168Z,75.10
2018-11-26T06:24:17.291Z,75.20
2018-11-26T06:24:52.774Z,75.20
2018-11-26T06:25:27.190Z,75.30
2018-11-26T06:26:00.868Z,75.20
2018-11-26T06:26:35.374Z,75.30
2018-11-26T06:27:10.708Z,75.10
2018-11-26T06:27:45.639Z,74.90
2018-11-26T06:28:21.316Z,74.60
2018-11-26T06:28:54.792Z,74.70
2018-11-26T06:29:28.265Z,74.70
2018-11-26T06:30:01.814Z,74.70
2018-11-26T06:30:35.812Z,74.70
2018-11-26T06:31:09.375Z,74.70
2018-11-26T06:31:42.856Z,74.60
2018-11-26T06:32:16.998Z,74.60
2018-11-26T06:32:50.494Z,74.60
2018-11-26T06:33:24.821Z,74.50
2018-11-26T06:33:58.374Z,74.50
2018-11-26T06:34:31.926Z,74.40
2018-11-26T06:35:10.224Z,74.60
2018-11-26T06:35:43.779Z,74.60
2018-11-26T06:36:18.624Z,74.60
2018-11-26T06:36:52.271Z,74.40
2018-11-26T06:37:25.796Z,74.40
2018-11-26T06:37:59.616Z,74.40
2018-11-26T06:38:33.206Z,74.10
2018-11-26T06:39:09.028Z,74.00
2018-11-26T06:39:43.451Z,73.80
2018-11-26T06:40:16.936Z,73.80
2018-11-26T06:40:50.796Z,73.80
2018-11-26T06:41:24.318Z,73.80
2018-11-26T06:41:58.240Z,73.80
2018-11-26T06:42:32.724Z,73.70
2018-11-26T06:43:07.869Z,73.70
2018-11-26T06:43:43.837Z,73.70
2018-11-26T06:44:17.338Z,73.70
2018-11-26T06:44:52.704Z,73.70
2018-11-26T06:45:26.312Z,73.70
2018-11-26T06:46:00.691Z,73.80
2018-11-26T06:46:34.830Z,73.80
2018-11-26T06:47:09.642Z,73.80
2018-11-26T06:47:43.634Z,73.70
2018-11-26T06:48:18.490Z,73.70
2018-11-26T06:48:52.354Z,73.70
2018-11-26T06:49:27.012Z,73.70
2018-11-26T06:50:02.802Z,73.70
2018-11-26T06:50:38.536Z,73.70
2018-11-26T06:51:13.367Z,73.60
2018-11-26T06:51:47.868Z,73.70
2018-11-26T06:52:22.838Z,73.70
2018-11-26T06:52:57.909Z,73.80
2018-11-26T06:53:32.253Z,73.70
2018-11-26T06:54:07.878Z,73.70
2018-11-26T06:54:41.782Z,73.70
2018-11-26T06:55:16.895Z,73.70
2018-11-26T06:55:51.497Z,73.60
2018-11-26T06:56:25.062Z,73.80
2018-11-26T06:56:59.856Z,73.80
2018-11-26T06:57:33.974Z,73.60
2018-11-26T06:58:10.279Z,73.50
2018-11-26T06:58:45.775Z,73.40
2018-11-26T06:59:21.100Z,73.50
2018-11-26T06:59:56.002Z,73.60
2018-11-26T07:00:31.016Z,73.70
2018-11-26T07:01:04.979Z,73.50
2018-11-26T07:01:40.658Z,73.40
2018-11-26T07:02:14.457Z,73.60
2018-11-26T07:02:48.867Z,73.50
2018-11-26T07:03:22.555Z,73.60
2018-11-26T07:03:56.642Z,73.50
2018-11-26T07:04:30.328Z,73.60
2018-11-26T07:05:05.992Z,73.40
2018-11-26T07:05:39.970Z,73.40
2018-11-26T07:06:15.266Z,73.30
2018-11-26T07:06:50.007Z,73.30
2018-11-26T07:07:26.568Z,73.30
2018-11-26T07:08:00.137Z,73.20
2018-11-26T07:08:35.938Z,73.20
2018-11-26T07:09:10.004Z,73.30
2018-11-26T07:09:44.137Z,73.20
2018-11-26T07:10:18.900Z,73.20
2018-11-26T07:10:54.840Z,73.20
2018-11-26T07:11:31.095Z,73.30
2018-11-26T07:12:05.280Z,73.40
2018-11-26T07:12:39.288Z,73.20
2018-11-26T07:13:13.959Z,73.20
2018-11-26T07:13:48.205Z,73.40
2018-11-26T07:14:21.918Z,73.40
2018-11-26T07:14:58.798Z,73.40
2018-11-26T07:15:32.604Z,73.50
2018-11-26T07:16:09.192Z,73.60
2018-11-26T07:16:43.599Z,73.70
2018-11-26T07:17:17.231Z,73.60
2018-11-26T07:17:51.504Z,73.40
2018-11-26T07:18:25.639Z,73.20
2018-11-26T07:18:59.371Z,73.20
2018-11-26T07:19:33.844Z,73.10
2018-11-26T07:20:23.586Z,73.00
2018-11-26T07:20:57.118Z,73.80
2018-11-26T07:21:31.543Z,73.00
2018-11-26T07:22:05.568Z,73.00
2018-11-26T07:22:38.980Z,73.00
2018-11-26T07:23:12.536Z,73.20
2018-11-26T07:23:46.708Z,73.90
2018-11-26T07:24:20.428Z,73.00
2018-11-26T07:24:54.432Z,72.90